createdAt,value
2023-04-30T00:01:26.721Z,99.90
2023-04-30T00:03:53.506Z,99.90
2023-04-30T00:06:20.657Z,99.90
2023-04-30T00:08:47.643Z,99.90
2023-04-30T00:11:14.417Z,99.90
2023-04-30T00:13:42.896Z,99.90
2023-04-30T00:16:10.820Z,99.90
2023-04-30T00:18:38.331Z,99.90
2023-04-30T00:21:05.198Z,99.90
2023-04-30T00:23:32.024Z,99.90
2023-04-30T00:25:58.720Z,99.90
2023-04-30T00:28:25.546Z,99.90
2023-04-30T00:30:52.617Z,99.90
2023-04-30T00:33:19.888Z,99.90
2023-04-30T00:35:47.046Z,99.90
2023-04-30T00:38:13.749Z,99.90
2023-04-30T00:40:42.023Z,99.90
2023-04-30T00:43:08.919Z,99.90
2023-04-30T00:45:35.809Z,99.90
2023-04-30T00:48:03.248Z,99.90
2023-04-30T00:50:30.223Z,99.90
2023-04-30T00:52:57.399Z,99.90
2023-04-30T00:55:24.143Z,99.90
2023-04-30T00:57:51.731Z,99.90
2023-04-30T01:00:19.598Z,99.90
2023-04-30T01:02:46.458Z,99.90
2023-04-30T01:05:13.192Z,99.90
2023-04-30T01:07:46.241Z,99.90
2023-04-30T01:10:14.441Z,99.90
2023-04-30T01:13:02.117Z,99.90
2023-04-30T01:15:41.081Z,99.90
2023-04-30T01:18:26.264Z,99.90
2023-04-30T01:21:04.141Z,99.90
2023-04-30T01:24:13.732Z,99.90
2023-04-30T01:27:07.024Z,99.90
2023-04-30T01:29:36.436Z,99.90
2023-04-30T01:32:03.693Z,99.90
2023-04-30T01:34:31.760Z,99.90
2023-04-30T01:37:29.112Z,99.90
2023-04-30T01:40:08.020Z,99.90
2023-04-30T01:42:51.976Z,99.90
2023-04-30T01:45:32.919Z,99.90
2023-04-30T01:48:22.821Z,99.90
2023-04-30T01:51:05.798Z,99.90
2023-04-30T01:53:41.195Z,99.90
2023-04-30T01:56:12.578Z,99.90
2023-04-30T01:58:40.835Z,99.90
2023-04-30T02:01:07.791Z,99.90
2023-04-30T02:03:34.867Z,99.90
2023-04-30T02:06:02.470Z,99.90
2023-04-30T02:08:29.258Z,99.90
2023-04-30T02:10:56.115Z,99.90
2023-04-30T02:13:22.932Z,99.90
2023-04-30T02:15:49.688Z,99.90
2023-04-30T02:18:16.574Z,99.90
2023-04-30T02:20:43.742Z,99.90
2023-04-30T02:23:11.819Z,99.90
2023-04-30T02:25:39.380Z,99.90
2023-04-30T02:28:06.585Z,99.90
2023-04-30T02:30:33.296Z,99.90
2023-04-30T02:33:00.413Z,99.90
2023-04-30T02:35:27.346Z,99.90
2023-04-30T02:37:54.340Z,99.90
2023-04-30T02:40:21.044Z,99.90
2023-04-30T02:42:48.438Z,99.90
2023-04-30T02:45:16.345Z,99.90
2023-04-30T02:47:43.273Z,99.90
2023-04-30T02:50:10.717Z,99.90
2023-04-30T02:52:37.484Z,99.90
2023-04-30T02:55:04.370Z,99.90
2023-04-30T02:57:31.042Z,99.90
2023-04-30T02:59:58.025Z,99.90
2023-04-30T03:02:24.972Z,99.90
2023-04-30T03:04:52.054Z,99.90
2023-04-30T03:07:19.052Z,99.90
2023-04-30T03:09:46.688Z,99.90
2023-04-30T03:12:14.644Z,99.90
2023-04-30T03:14:42.708Z,99.90
2023-04-30T03:17:09.631Z,99.90
2023-04-30T03:19:36.618Z,99.90
2023-04-30T03:22:03.456Z,99.90
2023-04-30T03:24:30.771Z,99.90
2023-04-30T03:26:57.535Z,99.90
2023-04-30T03:29:24.356Z,99.90
2023-04-30T03:31:51.692Z,99.90
2023-04-30T03:34:18.587Z,99.90
2023-04-30T03:36:45.457Z,99.90
2023-04-30T03:39:12.171Z,99.90
2023-04-30T03:41:38.895Z,99.90
2023-04-30T03:44:06.694Z,99.90
2023-04-30T03:46:33.466Z,99.90
2023-04-30T03:49:00.492Z,99.90
2023-04-30T03:51:27.468Z,99.90
2023-04-30T03:53:54.317Z,99.90
2023-04-30T03:56:21.474Z,99.90
2023-04-30T03:58:48.388Z,99.90
2023-04-30T04:01:15.239Z,99.90
2023-04-30T04:03:42.028Z,99.90
2023-04-30T04:06:08.921Z,99.90
2023-04-30T04:08:36.663Z,99.90
2023-04-30T04:11:03.665Z,99.90
2023-04-30T04:13:31.106Z,99.90
2023-04-30T04:15:57.997Z,99.90
2023-04-30T04:18:24.722Z,99.90
2023-04-30T04:20:52.513Z,99.90
2023-04-30T04:23:20.311Z,99.90
2023-04-30T04:25:49.556Z,99.90
2023-04-30T04:28:17.163Z,99.90
2023-04-30T04:30:44.418Z,99.90
2023-04-30T04:33:11.717Z,99.90
2023-04-30T04:35:38.448Z,99.90
2023-04-30T04:38:05.503Z,99.90
2023-04-30T04:40:33.082Z,99.90
2023-04-30T04:42:59.854Z,99.90
2023-04-30T04:45:26.760Z,99.90
2023-04-30T04:47:53.767Z,99.90
2023-04-30T04:50:21.011Z,99.90
2023-04-30T04:52:48.071Z,99.90
2023-04-30T04:55:15.618Z,99.90
2023-04-30T04:57:42.531Z,99.90
2023-04-30T05:00:10.378Z,99.90
2023-04-30T05:02:37.172Z,99.90
2023-04-30T05:05:04.208Z,99.90
2023-04-30T05:07:31.130Z,99.90
2023-04-30T05:09:57.878Z,99.90
2023-04-30T05:12:24.668Z,99.90
2023-04-30T05:14:51.403Z,99.90
2023-04-30T05:17:18.222Z,99.90
2023-04-30T05:19:47.517Z,99.90
2023-04-30T05:22:14.550Z,99.90
2023-04-30T05:24:41.638Z,99.90
2023-04-30T05:27:08.936Z,99.90
2023-04-30T05:29:35.793Z,99.90
2023-04-30T05:32:02.596Z,99.90
2023-04-30T05:34:29.386Z,99.90
2023-04-30T05:36:56.349Z,99.90
2023-04-30T05:39:23.402Z,99.90
2023-04-30T05:41:51.631Z,99.90
2023-04-30T05:44:19.831Z,99.90
2023-04-30T05:46:47.304Z,99.90
2023-04-30T05:49:14.174Z,99.90
2023-04-30T05:51:40.909Z,99.90
2023-04-30T05:54:07.701Z,99.90
2023-04-30T05:56:34.454Z,99.90
2023-04-30T05:59:01.172Z,99.90
2023-04-30T06:01:29.347Z,99.90
2023-04-30T06:03:56.136Z,99.90
2023-04-30T06:06:23.193Z,99.90
2023-04-30T06:08:49.971Z,99.90
2023-04-30T06:11:17.033Z,99.90
2023-04-30T06:13:43.796Z,99.90
2023-04-30T06:16:10.595Z,99.90
2023-04-30T06:18:37.455Z,99.90
2023-04-30T06:21:04.210Z,99.90
2023-04-30T06:23:31.807Z,99.90
2023-04-30T06:25:58.563Z,99.90
2023-04-30T06:28:25.439Z,99.90
2023-04-30T06:30:54.020Z,99.90
2023-04-30T06:33:21.237Z,99.90
2023-04-30T06:35:48.064Z,99.90
2023-04-30T06:38:15.040Z,99.90
2023-04-30T06:40:41.919Z,99.90
2023-04-30T06:43:08.682Z,99.90
2023-04-30T06:45:35.610Z,99.90
2023-04-30T06:48:02.373Z,99.90
2023-04-30T06:50:29.106Z,99.90
2023-04-30T06:52:56.098Z,99.90
2023-04-30T06:55:23.132Z,99.90
2023-04-30T06:57:49.881Z,99.90
2023-04-30T07:00:16.828Z,99.90
2023-04-30T07:02:43.796Z,99.90
2023-04-30T07:05:11.571Z,99.90
2023-04-30T07:07:38.337Z,99.90
2023-04-30T07:10:05.852Z,99.90
2023-04-30T07:12:32.619Z,99.90
2023-04-30T07:14:59.343Z,99.90
2023-04-30T07:17:27.603Z,99.90
2023-04-30T07:19:55.052Z,99.90
2023-04-30T07:22:22.034Z,99.90
2023-04-30T07:24:48.766Z,99.90
2023-04-30T07:27:15.716Z,99.90
2023-04-30T07:29:42.427Z,99.90
2023-04-30T07:32:09.189Z,99.90
2023-04-30T07:34:35.894Z,99.90
2023-04-30T07:37:03.216Z,99.90
2023-04-30T07:39:30.951Z,99.90
2023-04-30T07:41:57.736Z,99.90
2023-04-30T07:44:24.485Z,99.90
2023-04-30T07:46:51.861Z,99.90
2023-04-30T07:49:18.566Z,99.90
2023-04-30T07:51:46.202Z,99.90
2023-04-30T07:54:13.021Z,99.90
2023-04-30T07:56:39.807Z,99.90
2023-04-30T07:59:06.944Z,99.90
2023-04-30T08:01:33.735Z,99.90
2023-04-30T08:04:01.459Z,99.90
2023-04-30T08:06:28.986Z,99.90
2023-04-30T08:08:56.070Z,99.90
2023-04-30T08:11:22.954Z,99.90
2023-04-30T08:13:49.742Z,99.90
2023-04-30T08:16:17.108Z,99.90
2023-04-30T08:18:45.095Z,99.90
2023-04-30T08:21:15.449Z,99.90
2023-04-30T08:23:42.242Z,99.90
2023-04-30T08:26:09.039Z,99.90
2023-04-30T08:28:36.265Z,99.90
2023-04-30T08:31:03.368Z,99.90
2023-04-30T08:33:30.138Z,99.90
2023-04-30T08:35:56.876Z,99.90
2023-04-30T08:38:23.555Z,99.90
2023-04-30T08:41:03.775Z,99.90
2023-04-30T08:43:31.004Z,99.90
2023-04-30T08:45:58.687Z,99.90
2023-04-30T08:48:26.585Z,99.90
2023-04-30T08:50:53.429Z,99.90
2023-04-30T08:53:21.880Z,99.90
2023-04-30T08:55:48.719Z,99.90
2023-04-30T08:58:15.684Z,99.90
2023-04-30T09:00:42.603Z,99.90
2023-04-30T09:03:10.093Z,99.90
2023-04-30T09:05:38.405Z,99.90
2023-04-30T09:08:06.556Z,99.90
2023-04-30T09:10:34.672Z,99.90
2023-04-30T09:13:05.337Z,99.90
2023-04-30T09:15:33.193Z,99.90
2023-04-30T09:18:17.605Z,99.90
2023-04-30T09:20:57.722Z,99.90
2023-04-30T09:23:25.509Z,99.90
2023-04-30T09:25:52.263Z,99.90
2023-04-30T09:28:23.605Z,99.90
2023-04-30T09:30:51.100Z,99.90
2023-04-30T09:33:18.309Z,99.90
2023-04-30T09:35:45.552Z,99.90
2023-04-30T09:38:30.325Z,99.90
2023-04-30T09:40:59.565Z,99.90
2023-04-30T09:43:27.404Z,98.40
2023-04-30T09:45:54.186Z,98.80
2023-04-30T09:48:24.833Z,99.00
2023-04-30T09:50:51.938Z,98.80
2023-04-30T09:53:19.543Z,95.80
2023-04-30T09:55:51.096Z,97.40
2023-04-30T09:58:19.139Z,97.30
2023-04-30T10:00:48.338Z,95.20
2023-04-30T10:03:16.773Z,92.40
2023-04-30T10:05:48.707Z,92.20
2023-04-30T10:08:22.159Z,91.20
2023-04-30T10:10:54.344Z,92.00
2023-04-30T10:13:22.136Z,91.20
2023-04-30T10:15:52.809Z,92.30
2023-04-30T10:18:33.365Z,92.90
2023-04-30T10:21:10.031Z,90.30
2023-04-30T10:23:39.886Z,89.90
2023-04-30T10:26:08.426Z,91.50
2023-04-30T10:28:35.140Z,90.50
2023-04-30T10:31:02.168Z,90.00
2023-04-30T10:33:40.740Z,88.20
2023-04-30T10:36:13.360Z,88.30
2023-04-30T10:38:41.018Z,88.50
2023-04-30T10:41:09.692Z,88.10
2023-04-30T10:43:37.174Z,84.20
2023-04-30T10:46:04.705Z,81.60
2023-04-30T10:48:35.401Z,88.00
2023-04-30T10:51:02.432Z,82.80
2023-04-30T10:53:32.537Z,86.00
2023-04-30T10:56:06.433Z,83.90
2023-04-30T10:58:35.559Z,83.70
2023-04-30T11:01:06.318Z,84.80
2023-04-30T11:03:35.556Z,82.80
2023-04-30T11:06:10.745Z,83.80
2023-04-30T11:08:39.428Z,81.80
2023-04-30T11:11:09.448Z,82.20
2023-04-30T11:13:41.109Z,84.60
2023-04-30T11:16:08.389Z,78.00
2023-04-30T11:18:41.023Z,80.10
2023-04-30T11:21:09.860Z,82.50
2023-04-30T11:23:41.525Z,79.20
2023-04-30T11:26:09.358Z,75.60
2023-04-30T11:28:38.324Z,73.10
2023-04-30T11:31:05.857Z,75.80
2023-04-30T11:33:33.938Z,76.10
2023-04-30T11:36:01.921Z,75.90
2023-04-30T11:38:30.026Z,74.00
2023-04-30T11:40:57.907Z,76.70
2023-04-30T11:43:26.378Z,75.90
2023-04-30T11:46:11.223Z,75.60
2023-04-30T11:48:40.135Z,77.80
2023-04-30T11:51:17.226Z,73.60
2023-04-30T11:53:47.453Z,73.10
2023-04-30T11:56:14.701Z,74.60
2023-04-30T11:58:41.747Z,73.20
2023-04-30T12:01:12.241Z,70.00
2023-04-30T12:03:47.404Z,73.10
2023-04-30T12:06:25.688Z,71.30
2023-04-30T12:08:56.601Z,71.50
2023-04-30T12:11:28.218Z,69.00
2023-04-30T12:13:57.597Z,68.20
2023-04-30T12:16:25.750Z,68.60
2023-04-30T12:18:53.133Z,71.60
2023-04-30T12:21:23.075Z,68.80
2023-04-30T12:23:50.064Z,68.40
2023-04-30T12:26:17.848Z,65.00
2023-04-30T12:28:47.731Z,65.70
2023-04-30T12:31:14.546Z,66.80
2023-04-30T12:33:41.520Z,68.00
2023-04-30T12:36:11.376Z,66.50
2023-04-30T12:38:38.190Z,66.20
2023-04-30T12:41:05.366Z,64.60
2023-04-30T12:43:32.147Z,65.20
2023-04-30T12:45:58.902Z,65.30
2023-04-30T12:48:26.135Z,68.20
2023-04-30T12:51:00.072Z,65.90
2023-04-30T12:53:27.882Z,68.00
2023-04-30T12:56:17.698Z,65.60
2023-04-30T12:58:47.576Z,66.60
2023-04-30T13:01:18.202Z,62.30
2023-04-30T13:03:45.293Z,61.30
2023-04-30T13:06:12.566Z,64.80
2023-04-30T13:08:50.241Z,65.20
2023-04-30T13:11:25.984Z,65.40
2023-04-30T13:13:55.150Z,64.10
2023-04-30T13:16:22.758Z,63.60
2023-04-30T13:18:49.753Z,63.50
2023-04-30T13:21:16.608Z,63.50
2023-04-30T13:23:51.950Z,66.50
2023-04-30T13:26:21.315Z,63.30
2023-04-30T13:28:48.321Z,63.00
2023-04-30T13:31:15.111Z,61.40
2023-04-30T13:33:42.223Z,62.70
2023-04-30T13:36:08.988Z,62.40
2023-04-30T13:38:35.758Z,64.10
2023-04-30T13:41:02.570Z,64.10
2023-04-30T13:43:29.366Z,62.70
2023-04-30T13:45:56.769Z,63.00
2023-04-30T13:48:23.797Z,61.90
2023-04-30T13:50:52.350Z,62.20
2023-04-30T13:53:19.105Z,60.60
2023-04-30T13:55:45.830Z,61.80
2023-04-30T13:58:13.087Z,61.20
2023-04-30T14:00:40.026Z,63.00
2023-04-30T14:03:08.453Z,63.30
2023-04-30T14:05:36.339Z,64.10
2023-04-30T14:08:03.354Z,64.80
2023-04-30T14:10:30.404Z,64.50
2023-04-30T14:12:57.280Z,63.50
2023-04-30T14:15:24.551Z,62.80
2023-04-30T14:17:51.738Z,63.00
2023-04-30T14:20:18.778Z,60.90
2023-04-30T14:22:45.894Z,60.30
2023-04-30T14:25:12.733Z,63.60
2023-04-30T14:27:40.270Z,60.80
2023-04-30T14:30:07.939Z,62.30
2023-04-30T14:32:34.894Z,63.00
2023-04-30T14:35:02.596Z,61.30
2023-04-30T14:37:30.297Z,58.80
2023-04-30T14:40:00.306Z,61.80
2023-04-30T14:42:27.062Z,60.50
2023-04-30T14:44:54.148Z,62.00
2023-04-30T14:47:21.470Z,65.90
2023-04-30T14:49:50.258Z,62.10
2023-04-30T14:52:18.276Z,62.80
2023-04-30T14:54:45.577Z,63.10
2023-04-30T14:57:13.888Z,61.40
2023-04-30T14:59:41.677Z,63.60
2023-04-30T15:02:09.093Z,63.70
2023-04-30T15:04:35.863Z,63.40
2023-04-30T15:07:02.674Z,62.80
2023-04-30T15:09:29.500Z,63.70
2023-04-30T15:11:56.303Z,63.10
2023-04-30T15:14:23.301Z,63.70
2023-04-30T15:16:50.234Z,65.20
2023-04-30T15:19:17.023Z,65.00
2023-04-30T15:21:43.754Z,65.50
2023-04-30T15:24:10.818Z,62.80
2023-04-30T15:26:37.832Z,66.50
2023-04-30T15:29:04.526Z,66.00
2023-04-30T15:31:32.777Z,65.60
2023-04-30T15:33:59.640Z,64.40
2023-04-30T15:36:26.724Z,64.50
2023-04-30T15:38:53.438Z,66.70
2023-04-30T15:41:21.628Z,67.80
2023-04-30T15:43:48.460Z,63.70
2023-04-30T15:46:16.700Z,63.60
2023-04-30T15:48:43.612Z,62.50
2023-04-30T15:51:10.916Z,64.40
2023-04-30T15:53:37.712Z,67.10
2023-04-30T15:56:04.703Z,66.80
2023-04-30T15:58:31.612Z,67.50
2023-04-30T16:00:58.348Z,68.20
2023-04-30T16:03:25.263Z,67.40
2023-04-30T16:05:52.484Z,65.50
2023-04-30T16:08:19.359Z,67.20
2023-04-30T16:10:46.089Z,66.20
2023-04-30T16:13:13.657Z,63.60
2023-04-30T16:15:40.754Z,65.70
2023-04-30T16:18:08.078Z,65.40
2023-04-30T16:20:34.854Z,67.70
2023-04-30T16:23:01.679Z,65.30
2023-04-30T16:25:28.596Z,65.30
2023-04-30T16:27:55.349Z,65.50
2023-04-30T16:30:22.297Z,66.70
2023-04-30T16:32:49.145Z,65.10
2023-04-30T16:35:16.101Z,64.80
2023-04-30T16:37:42.800Z,65.70
2023-04-30T16:40:10.801Z,66.60
2023-04-30T16:42:37.635Z,66.80
2023-04-30T16:45:04.726Z,68.30
2023-04-30T16:47:32.080Z,69.40
2023-04-30T16:49:59.007Z,68.00
2023-04-30T16:52:25.913Z,68.90
2023-04-30T16:54:52.807Z,67.80
2023-04-30T16:57:19.658Z,67.70
2023-04-30T16:59:46.746Z,67.30
2023-04-30T17:02:13.534Z,66.90
2023-04-30T17:04:40.263Z,66.50
2023-04-30T17:07:07.386Z,68.20
2023-04-30T17:09:34.340Z,67.20
2023-04-30T17:12:02.181Z,65.70
2023-04-30T17:14:29.005Z,66.80
2023-04-30T17:16:55.834Z,67.00
2023-04-30T17:19:22.736Z,68.20
2023-04-30T17:21:53.259Z,68.20
2023-04-30T17:24:19.955Z,68.10
2023-04-30T17:26:46.870Z,69.90
2023-04-30T17:29:13.687Z,69.00
2023-04-30T17:31:41.182Z,69.80
2023-04-30T17:34:07.960Z,70.50
2023-04-30T17:36:34.852Z,70.00
2023-04-30T17:39:05.577Z,70.50
2023-04-30T17:41:32.913Z,71.10
2023-04-30T17:43:59.819Z,71.30
2023-04-30T17:46:26.566Z,71.20
2023-04-30T17:48:53.259Z,72.90
2023-04-30T17:51:20.119Z,73.30
2023-04-30T17:53:46.851Z,74.20
2023-04-30T17:56:13.586Z,73.40
2023-04-30T17:58:40.554Z,73.60
2023-04-30T18:01:07.696Z,75.40
2023-04-30T18:03:36.252Z,75.20
2023-04-30T18:06:03.801Z,75.10
2023-04-30T18:08:30.897Z,76.30
2023-04-30T18:10:57.743Z,76.50
2023-04-30T18:13:24.538Z,76.60
2023-04-30T18:15:51.500Z,76.40
2023-04-30T18:18:18.823Z,77.70
2023-04-30T18:20:45.895Z,78.90
2023-04-30T18:23:13.789Z,79.70
2023-04-30T18:25:42.372Z,80.00
2023-04-30T18:28:09.329Z,82.40
2023-04-30T18:30:36.833Z,82.50
2023-04-30T18:33:04.901Z,85.40
2023-04-30T18:35:32.633Z,88.60
2023-04-30T18:37:59.922Z,88.80
2023-04-30T18:40:26.669Z,90.00
2023-04-30T18:42:54.452Z,90.60
2023-04-30T18:45:21.684Z,91.60
2023-04-30T18:47:48.516Z,92.10
2023-04-30T18:50:17.783Z,93.40
2023-04-30T18:52:45.202Z,94.20
2023-04-30T18:55:13.875Z,95.20
2023-04-30T18:57:42.458Z,96.00
2023-04-30T19:00:10.516Z,97.20
2023-04-30T19:02:37.503Z,98.00
2023-04-30T19:05:04.929Z,98.00
2023-04-30T19:07:31.839Z,99.40
2023-04-30T19:09:58.924Z,99.90
2023-04-30T19:12:26.059Z,99.90
2023-04-30T19:14:53.003Z,99.90
2023-04-30T19:17:21.885Z,99.90
2023-04-30T19:19:50.035Z,99.90
2023-04-30T19:22:17.361Z,99.90
2023-04-30T19:24:44.203Z,99.90
2023-04-30T19:27:11.178Z,99.90
2023-04-30T19:29:39.417Z,99.90
2023-04-30T19:32:06.563Z,99.90
2023-04-30T19:34:33.410Z,99.90
2023-04-30T19:37:00.568Z,99.90
2023-04-30T19:39:36.096Z,99.90
2023-04-30T19:42:03.680Z,99.90
2023-04-30T19:44:30.834Z,99.90
2023-04-30T19:46:58.253Z,99.90
2023-04-30T19:49:26.496Z,99.90
2023-04-30T19:51:53.847Z,99.90
2023-04-30T19:54:20.826Z,99.90
2023-04-30T19:56:47.905Z,99.90
2023-04-30T19:59:14.637Z,99.90
2023-04-30T20:01:42.009Z,99.90
2023-04-30T20:04:10.301Z,99.90
2023-04-30T20:06:37.165Z,99.90
2023-04-30T20:09:04.181Z,99.90
2023-04-30T20:11:30.968Z,99.90
2023-04-30T20:13:57.730Z,99.90
2023-04-30T20:16:24.472Z,99.90
2023-04-30T20:18:51.250Z,99.90
2023-04-30T20:21:20.561Z,99.90
2023-04-30T20:23:47.547Z,99.90
2023-04-30T20:26:14.292Z,99.90
2023-04-30T20:28:41.059Z,99.90
2023-04-30T20:31:09.685Z,99.90
2023-04-30T20:33:36.589Z,99.90
2023-04-30T20:36:03.599Z,99.90
2023-04-30T20:38:30.348Z,99.90
2023-04-30T20:40:58.494Z,99.90
2023-04-30T20:43:25.618Z,99.90
2023-04-30T20:45:56.211Z,99.90
2023-04-30T20:48:23.236Z,99.90
2023-04-30T20:50:50.597Z,99.90
2023-04-30T20:53:17.668Z,99.90
2023-04-30T20:55:44.484Z,99.90
2023-04-30T20:58:11.768Z,99.90
2023-04-30T21:00:38.582Z,99.90
2023-04-30T21:03:06.205Z,99.90
2023-04-30T21:05:33.322Z,99.90
2023-04-30T21:08:01.682Z,99.90
2023-04-30T21:10:35.337Z,99.90
2023-04-30T21:13:08.793Z,99.90
2023-04-30T21:15:36.609Z,99.90
2023-04-30T21:18:03.650Z,99.90
2023-04-30T21:20:31.481Z,99.90
2023-04-30T21:22:58.575Z,99.90
2023-04-30T21:25:25.592Z,99.90
2023-04-30T21:27:52.351Z,99.90
2023-04-30T21:30:19.350Z,99.90
2023-04-30T21:32:48.787Z,99.90
2023-04-30T21:35:16.066Z,99.90
2023-04-30T21:37:42.839Z,99.90
2023-04-30T21:40:10.185Z,99.90
2023-04-30T21:42:37.234Z,99.90
2023-04-30T21:45:04.812Z,99.90
2023-04-30T21:47:31.695Z,99.90
2023-04-30T21:49:59.150Z,99.90
2023-04-30T21:52:26.621Z,99.90
2023-04-30T21:54:54.079Z,99.90
2023-04-30T21:57:21.440Z,99.90
2023-04-30T21:59:48.217Z,99.90
2023-04-30T22:02:23.725Z,99.90
2023-04-30T22:04:51.289Z,99.90
2023-04-30T22:07:18.376Z,99.90
2023-04-30T22:09:45.320Z,99.90
2023-04-30T22:12:12.102Z,99.90
2023-04-30T22:14:39.120Z,99.90
2023-04-30T22:17:06.101Z,99.90
2023-04-30T22:19:32.778Z,99.90
2023-04-30T22:21:59.663Z,99.90
2023-04-30T22:24:26.328Z,99.90
2023-04-30T22:26:53.135Z,99.90
2023-04-30T22:29:20.368Z,99.90
2023-04-30T22:31:47.518Z,99.90
2023-04-30T22:34:15.544Z,99.90
2023-04-30T22:36:43.535Z,99.90
2023-04-30T22:39:10.447Z,99.90
2023-04-30T22:41:37.311Z,99.90
2023-04-30T22:44:05.425Z,99.90
2023-04-30T22:46:34.036Z,99.90
2023-04-30T22:49:01.085Z,99.90
2023-04-30T22:51:28.074Z,99.90
2023-04-30T22:53:56.335Z,99.90
2023-04-30T22:56:23.364Z,99.90
2023-04-30T22:58:50.439Z,99.90
2023-04-30T23:01:17.561Z,99.90
2023-04-30T23:03:44.354Z,99.90
2023-04-30T23:06:11.729Z,99.90
2023-04-30T23:08:38.582Z,99.90
2023-04-30T23:11:05.713Z,99.90
2023-04-30T23:13:32.630Z,99.90
2023-04-30T23:16:01.250Z,99.90
2023-04-30T23:18:28.059Z,99.90
2023-04-30T23:20:58.763Z,99.90
2023-04-30T23:23:26.812Z,99.90
2023-04-30T23:25:54.910Z,99.90
2023-04-30T23:28:24.288Z,99.90
2023-04-30T23:30:52.312Z,99.90
2023-04-30T23:33:19.759Z,99.90
2023-04-30T23:35:47.233Z,99.90
2023-04-30T23:38:15.101Z,99.90
2023-04-30T23:40:42.673Z,99.90
2023-04-30T23:43:10.854Z,99.90
2023-04-30T23:45:42.323Z,99.90
2023-04-30T23:48:10.409Z,99.90
2023-04-30T23:50:38.199Z,99.90
2023-04-30T23:53:04.999Z,99.90
2023-04-30T23:55:31.720Z,99.90
2023-04-30T23:57:58.508Z,99.90
